createdAt,value
2023-03-23T15:57:55.635Z,44.08
2023-03-23T16:00:24.626Z,46.30
2023-03-23T16:03:01.714Z,43.39
2023-03-23T16:05:28.734Z,43.05
2023-03-23T16:07:55.733Z,42.98
2023-03-23T16:10:24.331Z,42.92
2023-03-23T16:12:51.021Z,43.47
2023-03-23T16:15:17.974Z,44.35
2023-03-23T16:17:46.612Z,43.35
2023-03-23T16:20:21.883Z,43.40
2023-03-23T16:22:49.344Z,43.75
2023-03-23T16:25:16.441Z,44.45
2023-03-23T16:27:43.851Z,44.83
2023-03-23T16:30:15.978Z,45.89
2023-03-23T16:35:09.332Z,48.63
2023-03-23T16:37:36.562Z,47.96
2023-03-23T16:40:04.844Z,49.30
2023-03-23T16:42:31.478Z,48.31
2023-03-23T16:44:59.657Z,47.88
2023-03-23T16:47:26.146Z,47.74
2023-03-23T16:49:53.928Z,47.14
2023-03-23T16:52:20.961Z,46.84
2023-03-23T16:54:47.453Z,46.64
2023-03-23T16:57:13.963Z,46.51
2023-03-23T16:59:40.364Z,46.41
2023-03-23T17:02:07.237Z,46.38
2023-03-23T17:04:34.173Z,47.38
2023-03-23T17:07:00.692Z,47.37
2023-03-23T17:09:31.046Z,47.69
2023-03-23T17:12:00.278Z,48.00
2023-03-23T17:14:29.058Z,48.01
2023-03-23T17:16:58.887Z,48.06
2023-03-23T17:19:26.086Z,47.97
2023-03-23T17:21:52.968Z,48.19
2023-03-23T17:24:19.919Z,48.21
2023-03-23T17:26:46.436Z,49.75
2023-03-23T17:29:13.059Z,50.46
2023-03-23T17:31:41.305Z,50.33
2023-03-23T17:34:07.805Z,50.80
2023-03-23T17:36:34.336Z,50.92
2023-03-23T17:39:00.918Z,51.24
2023-03-23T17:41:31.799Z,51.22
2023-03-23T17:44:01.540Z,51.33
2023-03-23T17:46:31.970Z,51.68
2023-03-23T17:49:08.776Z,51.43
2023-03-23T17:51:36.056Z,52.07
2023-03-23T17:54:02.513Z,52.73
2023-03-23T17:56:31.894Z,53.13
2023-03-23T17:59:01.327Z,53.13
2023-03-23T18:01:30.802Z,52.23
2023-03-23T18:04:01.873Z,52.64
2023-03-23T18:06:32.731Z,52.70
2023-03-23T18:08:59.869Z,52.99
2023-03-23T18:11:30.786Z,53.07
2023-03-23T18:14:00.477Z,53.17
2023-03-23T18:16:30.221Z,53.22
2023-03-23T18:18:59.238Z,53.57
2023-03-23T18:21:31.804Z,54.24
2023-03-23T18:24:01.220Z,54.54
2023-03-23T18:26:33.839Z,54.68
2023-03-23T18:29:00.365Z,54.66
2023-03-23T18:31:29.118Z,54.75
2023-03-23T18:33:59.363Z,54.57
2023-03-23T18:36:31.661Z,54.72
2023-03-23T18:39:01.577Z,54.25
2023-03-23T18:41:32.058Z,54.66
2023-03-23T18:44:01.894Z,54.90
2023-03-23T18:46:31.694Z,54.46
2023-03-23T18:49:01.357Z,54.21
2023-03-23T18:51:30.972Z,54.63
2023-03-23T18:54:05.342Z,54.74
2023-03-23T18:56:34.422Z,55.00
2023-03-23T18:59:01.988Z,54.89
2023-03-23T19:01:31.642Z,53.95
2023-03-23T19:04:02.502Z,53.20
2023-03-23T19:06:34.989Z,52.38
2023-03-23T19:09:02.080Z,52.47
2023-03-23T19:11:30.048Z,52.79
2023-03-23T19:14:03.988Z,52.65
2023-03-23T19:16:36.102Z,52.15
2023-03-23T19:19:06.918Z,51.37
2023-03-23T19:21:34.138Z,51.29
2023-03-23T19:24:01.937Z,51.12
2023-03-23T19:26:36.925Z,51.49
2023-03-23T19:29:26.217Z,52.57
2023-03-23T19:31:55.417Z,52.57
2023-03-23T19:34:22.451Z,52.69
2023-03-23T19:36:55.196Z,53.06
2023-03-23T19:39:26.165Z,53.33
2023-03-23T19:41:52.806Z,53.47
2023-03-23T19:44:19.286Z,52.76
2023-03-23T19:46:46.038Z,53.00
2023-03-23T19:49:12.804Z,53.14
2023-03-23T19:51:39.776Z,53.12
2023-03-23T19:54:07.899Z,52.77
2023-03-23T19:56:35.068Z,53.14
2023-03-23T19:59:05.238Z,53.54
2023-03-23T20:01:31.925Z,54.06
2023-03-23T20:04:00.287Z,54.55
2023-03-23T20:06:29.327Z,54.39
2023-03-23T20:08:56.944Z,54.40
2023-03-23T20:11:26.187Z,54.66
2023-03-23T20:13:52.701Z,54.51
2023-03-23T20:16:19.252Z,54.92
2023-03-23T20:18:47.374Z,55.22
2023-03-23T20:21:19.661Z,55.32
2023-03-23T20:23:47.503Z,55.54
2023-03-23T20:26:19.617Z,55.36
2023-03-23T20:28:47.635Z,55.15
2023-03-23T20:31:24.186Z,54.96
2023-03-23T20:34:00.885Z,54.94
2023-03-23T20:36:46.971Z,55.26
2023-03-23T20:39:21.766Z,55.66
2023-03-23T20:41:50.425Z,56.02
2023-03-23T20:44:18.770Z,56.43
2023-03-23T20:46:46.519Z,56.65
2023-03-23T20:49:13.943Z,56.98
2023-03-23T20:51:40.506Z,56.76
2023-03-23T20:54:07.188Z,56.92
2023-03-23T20:56:34.768Z,57.31
2023-03-23T20:59:05.746Z,57.16
2023-03-23T21:01:33.358Z,57.35
2023-03-23T21:04:03.391Z,57.90
2023-03-23T21:06:32.919Z,57.33
2023-03-23T21:09:01.485Z,57.46
2023-03-23T21:11:28.175Z,57.86
2023-03-23T21:13:54.657Z,57.29
2023-03-23T21:16:23.709Z,57.08
2023-03-23T21:18:50.694Z,56.95
2023-03-23T21:21:18.382Z,57.10
2023-03-23T21:23:47.516Z,56.51
2023-03-23T21:26:20.010Z,56.90
2023-03-23T21:28:47.425Z,56.95
2023-03-23T21:31:15.128Z,57.10
2023-03-23T21:33:41.881Z,57.38
2023-03-23T21:36:08.806Z,57.86
2023-03-23T21:38:35.529Z,57.86
2023-03-23T21:41:08.592Z,57.76
2023-03-23T21:43:35.078Z,57.75
2023-03-23T21:46:08.866Z,57.81
2023-03-23T21:48:38.567Z,57.94
2023-03-23T21:51:10.179Z,57.51
2023-03-23T21:53:39.938Z,57.46
2023-03-23T21:56:09.727Z,56.97
2023-03-23T21:58:38.284Z,56.46
2023-03-23T22:01:05.511Z,56.25
2023-03-23T22:03:36.821Z,55.93
2023-03-23T22:06:13.102Z,55.14
2023-03-23T22:08:41.837Z,54.66
2023-03-23T22:11:18.318Z,54.52
2023-03-23T22:13:45.740Z,54.58
2023-03-23T22:16:14.579Z,54.04
2023-03-23T22:18:43.377Z,54.05
2023-03-23T22:21:10.672Z,53.37
2023-03-23T22:23:38.171Z,53.47
2023-03-23T22:26:06.263Z,53.29
2023-03-23T22:28:37.165Z,52.78
2023-03-23T22:31:17.161Z,52.81
2023-03-23T22:33:44.756Z,52.62
2023-03-23T22:36:12.266Z,52.86
2023-03-23T22:38:45.003Z,52.80
2023-03-23T22:41:20.248Z,52.90
2023-03-23T22:43:47.451Z,52.81
2023-03-23T22:46:14.997Z,52.99
2023-03-23T22:48:42.201Z,52.61
2023-03-23T22:51:09.979Z,52.86
2023-03-23T22:53:36.593Z,52.99
2023-03-23T22:56:04.936Z,53.51
2023-03-23T22:58:31.492Z,53.00
2023-03-23T23:01:01.219Z,53.15
2023-03-23T23:03:28.536Z,53.54
2023-03-23T23:05:56.600Z,54.16
2023-03-23T23:08:25.041Z,54.06
2023-03-23T23:10:56.276Z,53.70
2023-03-23T23:13:23.328Z,54.17
2023-03-23T23:15:52.872Z,53.88
2023-03-23T23:18:20.478Z,53.61
2023-03-23T23:20:53.121Z,54.03
2023-03-23T23:23:20.393Z,53.88
2023-03-23T23:25:47.431Z,53.82
2023-03-23T23:28:13.961Z,54.33
2023-03-23T23:30:40.939Z,54.87
2023-03-23T23:33:07.663Z,54.89
2023-03-23T23:35:37.041Z,55.34
2023-03-23T23:38:09.339Z,55.61
2023-03-23T23:40:39.696Z,55.53
2023-03-23T23:43:06.315Z,55.87
2023-03-23T23:45:33.141Z,56.40
2023-03-23T23:48:00.013Z,56.53
2023-03-23T23:50:27.307Z,56.03
2023-03-23T23:52:54.114Z,56.06
2023-03-23T23:55:21.126Z,56.80
2023-03-23T23:57:48.805Z,56.67
